Point Vicente — WDB9763 — position and weather

sailwx.info

Track history (hours):
 
Tides and Currents Weather Stations Pressure Air Temp Water Temp Dewpoint Dewpoint Depression Visibility Wind Speed Wind Dir Waves Ship Positions

Point Vicente

Owner: Foss Maritime Company, Seattle, WA. More information available from US FCC via Universal Licensing System and Coast Guard Vessel Documentation Center.

Last reported at 2015-May-06 22:33 UTC. Time now 2015-May-06 23:34 UTC.
Position N 37°48' W 122°18'.

Length 32 m; draft 4.3 m.

Type: Tug. MMSI: 366982330.

Date/timePositionNaut miles runAvg speedWind from/ knotsBaromVisibWave heightAir tempDewpointWater temp
2015-May-06 22:33N 37°48' W 122°18'0 0.0
2015-May-06 21:33N 37°48' W 122°18'0 0.0
2015-May-06 20:34N 37°48' W 122°18'3 2.9
2015-May-06 19:34N 37°49' W 122°21'6 5.8
2015-May-06 18:33N 37°54' W 122°24'1 1.1
2015-May-06 17:33N 37°54' W 122°22'0 0.0
2015-May-06 16:33N 37°54' W 122°22'0 0.0
2015-May-06 15:33N 37°54' W 122°22'0 0.0
2015-May-06 14:33N 37°54' W 122°22'0 0.0
2015-May-06 13:33N 37°54' W 122°22'0 0.0
2015-May-06 12:33N 37°54' W 122°22'0 0.0
2015-May-06 11:33N 37°54' W 122°22'0 0.0
2015-May-06 10:33N 37°54' W 122°22'0 0.0
2015-May-06 09:33N 37°54' W 122°22'0 0.0
2015-May-06 08:27N 37°54' W 122°22'0 0.0
2015-May-06 07:33N 37°54' W 122°22'0 0.0
2015-May-06 06:33N 37°54' W 122°22'0 0.0
2015-May-06 05:33N 37°54' W 122°22'0 0.1
2015-May-06 04:33N 37°54' W 122°22'1 0.7
2015-May-06 03:33N 37°55' W 122°22'3 3.4
2015-May-06 02:32N 37°55' W 122°26'1 1.3
2015-May-06 01:33N 37°55' W 122°25'1 0.9
2015-May-06 00:33N 37°54' W 122°25'2 2.1
2015-May-05 23:33N 37°55' W 122°22'1 1.0
2015-May-05 22:34N 37°54' W 122°22'0 0.1
2015-May-05 21:33N 37°54' W 122°22'0 0.0
2015-May-05 20:33N 37°54' W 122°22'0 0.0
2015-May-05 19:29N 37°54' W 122°22'0 0.0
2015-May-05 18:32N 37°54' W 122°22'0 0.0
2015-May-05 17:29N 37°54' W 122°22'0 0.0
2015-May-05 16:29N 37°54' W 122°22'0 0.0
2015-May-05 15:29N 37°54' W 122°22'0 0.0
2015-May-05 14:29N 37°54' W 122°22'0 0.0
2015-May-05 13:30N 37°54' W 122°22'0 0.0
2015-May-05 12:32N 37°54' W 122°22'0 0.0
2015-May-05 11:32N 37°54' W 122°22'0 0.0
2015-May-05 10:29N 37°54' W 122°22'0 0.0
2015-May-05 09:29N 37°54' W 122°22'0 0.0
2015-May-05 08:29N 37°54' W 122°22'0 0.0
2015-May-05 07:29N 37°54' W 122°22'0 0.0
2015-May-05 06:29N 37°54' W 122°22'0 0.0
2015-May-05 05:32N 37°54' W 122°22'0 0.0
2015-May-05 04:32N 37°54' W 122°22'0 0.0
2015-May-05 03:29N 37°54' W 122°22'0 0.0
2015-May-05 02:23N 37°54' W 122°22'0 0.0
2015-May-05 01:29N 37°54' W 122°22'0 0.0
2015-May-05 00:30N 37°54' W 122°22'0 0.0
2015-May-04 23:32N 37°54' W 122°22'0 0.0
2015-May-04 22:32N 37°54' W 122°22'0 0.0
2015-May-04 21:29N 37°54' W 122°22'0 0.0
2015-May-04 20:29N 37°54' W 122°22'0 0.0
2015-May-04 19:29N 37°54' W 122°22'0 0.0
2015-May-04 18:29N 37°54' W 122°22'0 0.0
2015-May-04 17:29N 37°54' W 122°22'0 0.0
2015-May-04 16:29N 37°54' W 122°22'0 0.0
2015-May-04 15:29N 37°54' W 122°22'3 3.2
2015-May-04 14:33N 37°52' W 122°24'7 6.7
2015-May-04 13:33N 37°45' W 122°23'0 0.2
2015-May-04 12:33N 37°45' W 122°23'1 1.3
2015-May-04 11:33N 37°46' W 122°22'5 4.8
2015-May-04 10:33N 37°51' W 122°24'5 4.7
2015-May-04 09:33N 37°55' W 122°22'1 0.7
2015-May-04 08:29N 37°54' W 122°22'0 0.0
2015-May-04 07:29N 37°54' W 122°22'0 0.0
2015-May-04 06:32N 37°54' W 122°22'0 0.0
2015-May-04 05:32N 37°54' W 122°22'0 0.0
2015-May-04 04:29N 37°54' W 122°22'0 0.0
2015-May-04 03:29N 37°54' W 122°22'0 0.0
2015-May-04 02:32N 37°54' W 122°22'0 0.0
2015-May-04 01:29N 37°54' W 122°22'0 0.3
2015-May-04 00:33N 37°54' W 122°22'0 0.3
2015-May-03 23:33N 37°54' W 122°22'0 0.0
2015-May-03 22:33N 37°54' W 122°22'0 0.0
2015-May-03 21:33N 37°54' W 122°22'5 4.6
2015-May-03 20:34N 37°50' W 122°22'2 1.9
2015-May-03 19:29N 37°49' W 122°20'0 0.0
2015-May-03 18:32N 37°49' W 122°20'0 0.0
2015-May-03 17:32N 37°49' W 122°20'0 0.0
2015-May-03 16:32N 37°49' W 122°20'0 0.0
2015-May-03 15:32N 37°49' W 122°20'0 0.0
2015-May-03 14:32N 37°49' W 122°20'0 0.2
2015-May-03 13:32N 37°49' W 122°20'3 3.3
2015-May-03 12:33N 37°51' W 122°23'4 3.6
2015-May-03 11:33N 37°54' W 122°23'1 0.9
2015-May-03 10:33N 37°54' W 122°22'0 0.5
2015-May-03 09:32N 37°54' W 122°22'0 0.0
2015-May-03 08:32N 37°54' W 122°22'0 0.0
2015-May-03 07:32N 37°54' W 122°22'0 0.0
2015-May-03 06:32N 37°54' W 122°22'0 0.0
2015-May-03 04:23N 37°54' W 122°22'0 0.0
2015-May-03 03:29N 37°54' W 122°22'0 0.0
2015-May-03 02:32N 37°54' W 122°22'0 0.0
2015-May-03 01:14N 37°54' W 122°22'0 0.0
2015-May-03 00:32N 37°54' W 122°22'2 2.3
2015-May-02 23:34N 37°56' W 122°25'6 5.6
2015-May-02 22:34N 37°50' W 122°22'2 2.2
2015-May-02 21:32N 37°49' W 122°20'0 0.0
2015-May-02 20:32N 37°49' W 122°20'0 0.0
2015-May-02 19:32N 37°49' W 122°20'0 0.0
2015-May-02 18:32N 37°49' W 122°20'0 0.0
2015-May-02 17:32N 37°49' W 122°20'0 0.0
2015-May-02 16:26N 37°49' W 122°20'0 0.2
2015-May-02 15:33N 37°48' W 122°21'6 6.2
2015-May-02 14:33N 37°54' W 122°24'2 2.0
2015-May-02 13:33N 37°55' W 122°22'0 0.5
2015-May-02 12:33N 37°54' W 122°22'0 0.0
2015-May-02 11:34N 37°54' W 122°22'0 0.0
2015-May-02 10:33N 37°54' W 122°22'0 0.0
2015-May-02 09:33N 37°54' W 122°22'0 0.0
2015-May-02 08:33N 37°54' W 122°22'0 0.0
2015-May-02 07:33N 37°54' W 122°22'0 0.0
2015-May-02 06:33N 37°54' W 122°22'0 0.0
2015-May-02 05:33N 37°54' W 122°22'0 0.0
2015-May-02 04:33N 37°54' W 122°22'0 0.0
2015-May-02 03:33N 37°54' W 122°22'0 0.0
2015-May-02 02:33N 37°54' W 122°22'0 0.0
2015-May-02 01:33N 37°54' W 122°22'0 0.0
2015-May-02 00:33N 37°54' W 122°22'0 0.0
2015-May-01 23:33N 37°54' W 122°22'0 0.5
2015-May-01 22:33N 37°55' W 122°22'5 5.2
2015-May-01 21:33N 37°50' W 122°24'1 1.3
2015-May-01 20:31N 37°48' W 122°24'0 0.0
2015-May-01 19:31N 37°48' W 122°24'0 0.0
2015-May-01 18:31N 37°48' W 122°24'0 0.0
2015-May-01 17:22N 37°48' W 122°24'0 0.0
2015-May-01 16:31N 37°48' W 122°24'0 0.0
2015-May-01 15:31N 37°48' W 122°24'0 0.0
2015-May-01 14:33N 37°48' W 122°24'4 4.1
2015-May-01 13:33N 37°52' W 122°25'3 2.6
2015-May-01 12:33N 37°54' W 122°22'0 0.1
2015-May-01 11:30N 37°54' W 122°22'0 0.0
2015-May-01 10:30N 37°54' W 122°22'0 0.0
2015-May-01 09:30N 37°54' W 122°22'0 0.0
2015-May-01 08:30N 37°54' W 122°22'0 0.0
2015-May-01 07:30N 37°54' W 122°22'0 0.0
2015-May-01 06:33N 37°54' W 122°22'0 0.0
2015-May-01 05:30N 37°54' W 122°22'0 0.0
2015-May-01 04:30N 37°54' W 122°22'0 0.0
2015-May-01 03:33N 37°54' W 122°22'0 0.0
2015-May-01 02:31N 37°54' W 122°22'0 0.0
2015-May-01 01:33N 37°54' W 122°22'0 0.0
2015-May-01 00:30N 37°54' W 122°22'0 0.0
2015-Apr-30 23:33N 37°54' W 122°22'0 0.0
2015-Apr-30 22:30N 37°54' W 122°22'0 0.0
2015-Apr-30 21:30N 37°54' W 122°22'1 0.8
2015-Apr-30 20:33N 37°55' W 122°22'1 1.0
2015-Apr-30 19:33N 37°54' W 122°23'0 0.3
2015-Apr-30 18:28N 37°54' W 122°22'0 0.0
2015-Apr-30 17:28N 37°54' W 122°22'0 0.0
2015-Apr-30 16:28N 37°54' W 122°22'0 0.0
2015-Apr-30 15:28N 37°54' W 122°22'0 0.0
2015-Apr-30 14:31N 37°54' W 122°22'0 0.0
2015-Apr-30 13:28N 37°54' W 122°22'0 0.0
2015-Apr-30 12:28N 37°54' W 122°22'0 0.0
2015-Apr-30 11:28N 37°54' W 122°22'0 0.0
2015-Apr-30 10:28N 37°54' W 122°22'0 0.0
2015-Apr-30 09:28N 37°54' W 122°22'0 0.0
2015-Apr-30 08:28N 37°54' W 122°22'0 0.0
2015-Apr-30 07:28N 37°54' W 122°22'0 0.0
2015-Apr-30 06:28N 37°54' W 122°22'0 0.0
2015-Apr-30 05:31N 37°54' W 122°22'0 0.0
2015-Apr-30 04:28N 37°54' W 122°22'0 0.0
2015-Apr-30 03:28N 37°54' W 122°22'0 0.1
2015-Apr-30 02:33N 37°54' W 122°22'0 0.1
2015-Apr-30 01:32N 37°54' W 122°22'0 0.3
2015-Apr-30 00:33N 37°54' W 122°23'6 5.9
2015-Apr-29 23:33N 37°48' W 122°23'3 2.6
2015-Apr-29 22:33N 37°46' W 122°21'0 0.1
2015-Apr-29 21:34N 37°46' W 122°21'0 0.0
2015-Apr-29 20:33N 37°46' W 122°21'0 0.0
2015-Apr-29 19:33N 37°46' W 122°21'0 0.1
2015-Apr-29 18:33N 37°46' W 122°21'1 1.5
2015-Apr-29 17:33N 37°48' W 122°22'7 7.1
2015-Apr-29 16:33N 37°54' W 122°24'2 1.6
2015-Apr-29 15:34N 37°54' W 122°22'0 0.1
2015-Apr-29 14:28N 37°54' W 122°22'0 0.0
2015-Apr-29 13:28N 37°54' W 122°22'0 0.0
2015-Apr-29 12:28N 37°54' W 122°22'0 0.0
2015-Apr-29 11:28N 37°54' W 122°22'0 0.0
2015-Apr-29 10:28N 37°54' W 122°22'1 1.0
2015-Apr-29 09:33N 37°55' W 122°22'3 2.8
2015-Apr-29 08:33N 37°53' W 122°25'7 7.4
2015-Apr-29 07:33N 37°48' W 122°19'0 0.0
2015-Apr-29 06:29N 37°48' W 122°19'0 0.0
2015-Apr-29 05:29N 37°48' W 122°19'0 0.0
2015-Apr-29 04:29N 37°48' W 122°19'0 0.0
2015-Apr-29 03:29N 37°48' W 122°19'0 0.0
2015-Apr-29 02:29N 37°48' W 122°19'0 0.0
2015-Apr-29 01:23N 37°48' W 122°19'0 0.0
2015-Apr-29 00:33N 37°48' W 122°19'2 1.9
2015-Apr-28 23:33N 37°48' W 122°21'4 3.7
2015-Apr-28 22:33N 37°51' W 122°23'4 4.1
2015-Apr-28 21:33N 37°55' W 122°22'1 0.7
2015-Apr-28 20:28N 37°54' W 122°22'0 0.0
2015-Apr-28 19:28N 37°54' W 122°22'0 0.0
2015-Apr-28 18:28N 37°54' W 122°22'0 0.0
2015-Apr-28 17:28N 37°54' W 122°22'0 0.0
2015-Apr-28 16:31N 37°54' W 122°22'1 0.6
2015-Apr-28 15:33N 37°55' W 122°22'1 0.7
2015-Apr-28 14:33N 37°55' W 122°22'1 0.9
2015-Apr-28 13:34N 37°54' W 122°22'0 0.0
2015-Apr-28 12:34N 37°54' W 122°22'1 0.9
2015-Apr-28 11:34N 37°55' W 122°22'2 2.4
2015-Apr-28 10:34N 37°54' W 122°24'8 7.7
2015-Apr-28 09:34N 37°46' W 122°21'1 1.0
2015-Apr-28 08:34N 37°46' W 122°21'0 0.0
2015-Apr-28 07:34N 37°46' W 122°21'0 0.0
2015-Apr-28 06:34N 37°46' W 122°21'0 0.1
2015-Apr-28 05:34N 37°46' W 122°21'0 0.2
2015-Apr-28 04:33N 37°45' W 122°21'0 0.0
2015-Apr-28 03:33N 37°45' W 122°21'0 0.0
2015-Apr-28 02:34N 37°45' W 122°21'0 0.0
2015-Apr-28 01:34N 37°45' W 122°21'0 0.0
2015-Apr-28 00:34N 37°45' W 122°21'5 5.1
2015-Apr-27 23:33N 37°50' W 122°23'4 4.1
2015-Apr-27 22:34N 37°54' W 122°22'0 0.1
2015-Apr-27 21:33N 37°54' W 122°22'0 0.0
2015-Apr-27 20:33N 37°54' W 122°22'0 0.0
2015-Apr-27 19:33N 37°54' W 122°22'0 0.0
2015-Apr-27 18:27N 37°54' W 122°22'0 0.0
2015-Apr-27 17:33N 37°54' W 122°22'0 0.0
2015-Apr-27 16:33N 37°54' W 122°22'0 0.0
2015-Apr-27 15:33N 37°54' W 122°22'0 0.0
2015-Apr-27 14:33N 37°54' W 122°22'0 0.0
2015-Apr-27 13:33N 37°54' W 122°22'0 0.0
2015-Apr-27 12:33N 37°54' W 122°22'0 0.0
2015-Apr-27 11:33N 37°54' W 122°22'0 0.0
2015-Apr-27 10:33N 37°54' W 122°22'0 0.0
2015-Apr-27 09:33N 37°54' W 122°22'0 0.0
2015-Apr-27 08:33N 37°54' W 122°22'0 0.0
2015-Apr-27 07:33N 37°54' W 122°22'0 0.0
2015-Apr-27 06:33N 37°54' W 122°22'0 0.0
2015-Apr-27 05:33N 37°54' W 122°22'0 0.0
2015-Apr-27 04:33N 37°54' W 122°22'0 0.0
2015-Apr-27 03:33N 37°54' W 122°22'0 0.0
2015-Apr-27 02:33N 37°54' W 122°22'0 0.0
2015-Apr-27 01:33N 37°54' W 122°22'0 0.0
2015-Apr-27 00:33N 37°54' W 122°22'0 0.0
2015-Apr-26 23:33N 37°54' W 122°22'  
Track history (hours):
 
Tides and Currents Weather Stations Pressure Air Temp Water Temp Dewpoint Dewpoint Depression Visibility Wind Speed Wind Dir Waves Ship Positions

Point Vicente

Owner: Foss Maritime Company, Seattle, WA. More information available from US FCC via Universal Licensing System and Coast Guard Vessel Documentation Center.

Last reported at 2015-May-06 22:33 UTC. Time now 2015-May-06 23:34 UTC.
Position N 37°48' W 122°18'.

Length 32 m; draft 4.3 m.

Type: Tug. MMSI: 366982330.

Date/timePositionNaut miles runAvg speedWind from/ knotsBaromVisibWave heightAir tempDewpointWater temp
2015-May-06 22:33N 37°48' W 122°18'0 0.0
2015-May-06 21:33N 37°48' W 122°18'0 0.0
2015-May-06 20:34N 37°48' W 122°18'3 2.9
2015-May-06 19:34N 37°49' W 122°21'6 5.8
2015-May-06 18:33N 37°54' W 122°24'1 1.1
2015-May-06 17:33N 37°54' W 122°22'0 0.0
2015-May-06 16:33N 37°54' W 122°22'0 0.0
2015-May-06 15:33N 37°54' W 122°22'0 0.0
2015-May-06 14:33N 37°54' W 122°22'0 0.0
2015-May-06 13:33N 37°54' W 122°22'0 0.0
2015-May-06 12:33N 37°54' W 122°22'0 0.0
2015-May-06 11:33N 37°54' W 122°22'0 0.0
2015-May-06 10:33N 37°54' W 122°22'0 0.0
2015-May-06 09:33N 37°54' W 122°22'0 0.0
2015-May-06 08:27N 37°54' W 122°22'0 0.0
2015-May-06 07:33N 37°54' W 122°22'0 0.0
2015-May-06 06:33N 37°54' W 122°22'0 0.0
2015-May-06 05:33N 37°54' W 122°22'0 0.1
2015-May-06 04:33N 37°54' W 122°22'1 0.7
2015-May-06 03:33N 37°55' W 122°22'3 3.4
2015-May-06 02:32N 37°55' W 122°26'1 1.3
2015-May-06 01:33N 37°55' W 122°25'1 0.9
2015-May-06 00:33N 37°54' W 122°25'2 2.1
2015-May-05 23:33N 37°55' W 122°22'1 1.0
2015-May-05 22:34N 37°54' W 122°22'0 0.1
2015-May-05 21:33N 37°54' W 122°22'0 0.0
2015-May-05 20:33N 37°54' W 122°22'0 0.0
2015-May-05 19:29N 37°54' W 122°22'0 0.0
2015-May-05 18:32N 37°54' W 122°22'0 0.0
2015-May-05 17:29N 37°54' W 122°22'0 0.0
2015-May-05 16:29N 37°54' W 122°22'0 0.0
2015-May-05 15:29N 37°54' W 122°22'0 0.0
2015-May-05 14:29N 37°54' W 122°22'0 0.0
2015-May-05 13:30N 37°54' W 122°22'0 0.0
2015-May-05 12:32N 37°54' W 122°22'0 0.0
2015-May-05 11:32N 37°54' W 122°22'0 0.0
2015-May-05 10:29N 37°54' W 122°22'0 0.0
2015-May-05 09:29N 37°54' W 122°22'0 0.0
2015-May-05 08:29N 37°54' W 122°22'0 0.0
2015-May-05 07:29N 37°54' W 122°22'0 0.0
2015-May-05 06:29N 37°54' W 122°22'0 0.0
2015-May-05 05:32N 37°54' W 122°22'0 0.0
2015-May-05 04:32N 37°54' W 122°22'0 0.0
2015-May-05 03:29N 37°54' W 122°22'0 0.0
2015-May-05 02:23N 37°54' W 122°22'0 0.0
2015-May-05 01:29N 37°54' W 122°22'0 0.0
2015-May-05 00:30N 37°54' W 122°22'0 0.0
2015-May-04 23:32N 37°54' W 122°22'0 0.0
2015-May-04 22:32N 37°54' W 122°22'0 0.0
2015-May-04 21:29N 37°54' W 122°22'0 0.0
2015-May-04 20:29N 37°54' W 122°22'0 0.0
2015-May-04 19:29N 37°54' W 122°22'0 0.0
2015-May-04 18:29N 37°54' W 122°22'0 0.0
2015-May-04 17:29N 37°54' W 122°22'0 0.0
2015-May-04 16:29N 37°54' W 122°22'0 0.0
2015-May-04 15:29N 37°54' W 122°22'3 3.2
2015-May-04 14:33N 37°52' W 122°24'7 6.7
2015-May-04 13:33N 37°45' W 122°23'0 0.2
2015-May-04 12:33N 37°45' W 122°23'1 1.3
2015-May-04 11:33N 37°46' W 122°22'5 4.8
2015-May-04 10:33N 37°51' W 122°24'5 4.7
2015-May-04 09:33N 37°55' W 122°22'1 0.7
2015-May-04 08:29N 37°54' W 122°22'0 0.0
2015-May-04 07:29N 37°54' W 122°22'0 0.0
2015-May-04 06:32N 37°54' W 122°22'0 0.0
2015-May-04 05:32N 37°54' W 122°22'0 0.0
2015-May-04 04:29N 37°54' W 122°22'0 0.0
2015-May-04 03:29N 37°54' W 122°22'0 0.0
2015-May-04 02:32N 37°54' W 122°22'0 0.0
2015-May-04 01:29N 37°54' W 122°22'0 0.3
2015-May-04 00:33N 37°54' W 122°22'0 0.3
2015-May-03 23:33N 37°54' W 122°22'0 0.0
2015-May-03 22:33N 37°54' W 122°22'0 0.0
2015-May-03 21:33N 37°54' W 122°22'5 4.6
2015-May-03 20:34N 37°50' W 122°22'2 1.9
2015-May-03 19:29N 37°49' W 122°20'0 0.0
2015-May-03 18:32N 37°49' W 122°20'0 0.0
2015-May-03 17:32N 37°49' W 122°20'0 0.0
2015-May-03 16:32N 37°49' W 122°20'0 0.0
2015-May-03 15:32N 37°49' W 122°20'0 0.0
2015-May-03 14:32N 37°49' W 122°20'0 0.2
2015-May-03 13:32N 37°49' W 122°20'3 3.3
2015-May-03 12:33N 37°51' W 122°23'4 3.6
2015-May-03 11:33N 37°54' W 122°23'1 0.9
2015-May-03 10:33N 37°54' W 122°22'0 0.5
2015-May-03 09:32N 37°54' W 122°22'0 0.0
2015-May-03 08:32N 37°54' W 122°22'0 0.0
2015-May-03 07:32N 37°54' W 122°22'0 0.0
2015-May-03 06:32N 37°54' W 122°22'0 0.0
2015-May-03 04:23N 37°54' W 122°22'0 0.0
2015-May-03 03:29N 37°54' W 122°22'0 0.0
2015-May-03 02:32N 37°54' W 122°22'0 0.0
2015-May-03 01:14N 37°54' W 122°22'0 0.0
2015-May-03 00:32N 37°54' W 122°22'2 2.3
2015-May-02 23:34N 37°56' W 122°25'6 5.6
2015-May-02 22:34N 37°50' W 122°22'2 2.2
2015-May-02 21:32N 37°49' W 122°20'0 0.0
2015-May-02 20:32N 37°49' W 122°20'0 0.0
2015-May-02 19:32N 37°49' W 122°20'0 0.0
2015-May-02 18:32N 37°49' W 122°20'0 0.0
2015-May-02 17:32N 37°49' W 122°20'0 0.0
2015-May-02 16:26N 37°49' W 122°20'0 0.2
2015-May-02 15:33N 37°48' W 122°21'6 6.2
2015-May-02 14:33N 37°54' W 122°24'2 2.0
2015-May-02 13:33N 37°55' W 122°22'0 0.5
2015-May-02 12:33N 37°54' W 122°22'0 0.0
2015-May-02 11:34N 37°54' W 122°22'0 0.0
2015-May-02 10:33N 37°54' W 122°22'0 0.0
2015-May-02 09:33N 37°54' W 122°22'0 0.0
2015-May-02 08:33N 37°54' W 122°22'0 0.0
2015-May-02 07:33N 37°54' W 122°22'0 0.0
2015-May-02 06:33N 37°54' W 122°22'0 0.0
2015-May-02 05:33N 37°54' W 122°22'0 0.0
2015-May-02 04:33N 37°54' W 122°22'0 0.0
2015-May-02 03:33N 37°54' W 122°22'0 0.0
2015-May-02 02:33N 37°54' W 122°22'0 0.0
2015-May-02 01:33N 37°54' W 122°22'0 0.0
2015-May-02 00:33N 37°54' W 122°22'0 0.0
2015-May-01 23:33N 37°54' W 122°22'0 0.5
2015-May-01 22:33N 37°55' W 122°22'5 5.2
2015-May-01 21:33N 37°50' W 122°24'1 1.3
2015-May-01 20:31N 37°48' W 122°24'0 0.0
2015-May-01 19:31N 37°48' W 122°24'0 0.0
2015-May-01 18:31N 37°48' W 122°24'0 0.0
2015-May-01 17:22N 37°48' W 122°24'0 0.0
2015-May-01 16:31N 37°48' W 122°24'0 0.0
2015-May-01 15:31N 37°48' W 122°24'0 0.0
2015-May-01 14:33N 37°48' W 122°24'4 4.1
2015-May-01 13:33N 37°52' W 122°25'3 2.6
2015-May-01 12:33N 37°54' W 122°22'0 0.1
2015-May-01 11:30N 37°54' W 122°22'0 0.0
2015-May-01 10:30N 37°54' W 122°22'0 0.0
2015-May-01 09:30N 37°54' W 122°22'0 0.0
2015-May-01 08:30N 37°54' W 122°22'0 0.0
2015-May-01 07:30N 37°54' W 122°22'0 0.0
2015-May-01 06:33N 37°54' W 122°22'0 0.0
2015-May-01 05:30N 37°54' W 122°22'0 0.0
2015-May-01 04:30N 37°54' W 122°22'0 0.0
2015-May-01 03:33N 37°54' W 122°22'0 0.0
2015-May-01 02:31N 37°54' W 122°22'0 0.0
2015-May-01 01:33N 37°54' W 122°22'0 0.0
2015-May-01 00:30N 37°54' W 122°22'0 0.0
2015-Apr-30 23:33N 37°54' W 122°22'0 0.0
2015-Apr-30 22:30N 37°54' W 122°22'0 0.0
2015-Apr-30 21:30N 37°54' W 122°22'1 0.8
2015-Apr-30 20:33N 37°55' W 122°22'1 1.0
2015-Apr-30 19:33N 37°54' W 122°23'0 0.3
2015-Apr-30 18:28N 37°54' W 122°22'0 0.0
2015-Apr-30 17:28N 37°54' W 122°22'0 0.0
2015-Apr-30 16:28N 37°54' W 122°22'0 0.0
2015-Apr-30 15:28N 37°54' W 122°22'0 0.0
2015-Apr-30 14:31N 37°54' W 122°22'0 0.0
2015-Apr-30 13:28N 37°54' W 122°22'0 0.0
2015-Apr-30 12:28N 37°54' W 122°22'0 0.0
2015-Apr-30 11:28N 37°54' W 122°22'0 0.0
2015-Apr-30 10:28N 37°54' W 122°22'0 0.0
2015-Apr-30 09:28N 37°54' W 122°22'0 0.0
2015-Apr-30 08:28N 37°54' W 122°22'0 0.0
2015-Apr-30 07:28N 37°54' W 122°22'0 0.0
2015-Apr-30 06:28N 37°54' W 122°22'0 0.0
2015-Apr-30 05:31N 37°54' W 122°22'0 0.0
2015-Apr-30 04:28N 37°54' W 122°22'0 0.0
2015-Apr-30 03:28N 37°54' W 122°22'0 0.1
2015-Apr-30 02:33N 37°54' W 122°22'0 0.1
2015-Apr-30 01:32N 37°54' W 122°22'0 0.3
2015-Apr-30 00:33N 37°54' W 122°23'6 5.9
2015-Apr-29 23:33N 37°48' W 122°23'3 2.6
2015-Apr-29 22:33N 37°46' W 122°21'0 0.1
2015-Apr-29 21:34N 37°46' W 122°21'0 0.0
2015-Apr-29 20:33N 37°46' W 122°21'0 0.0
2015-Apr-29 19:33N 37°46' W 122°21'0 0.1
2015-Apr-29 18:33N 37°46' W 122°21'1 1.5
2015-Apr-29 17:33N 37°48' W 122°22'7 7.1
2015-Apr-29 16:33N 37°54' W 122°24'2 1.6
2015-Apr-29 15:34N 37°54' W 122°22'0 0.1
2015-Apr-29 14:28N 37°54' W 122°22'0 0.0
2015-Apr-29 13:28N 37°54' W 122°22'0 0.0
2015-Apr-29 12:28N 37°54' W 122°22'0 0.0
2015-Apr-29 11:28N 37°54' W 122°22'0 0.0
2015-Apr-29 10:28N 37°54' W 122°22'1 1.0
2015-Apr-29 09:33N 37°55' W 122°22'3 2.8
2015-Apr-29 08:33N 37°53' W 122°25'7 7.4
2015-Apr-29 07:33N 37°48' W 122°19'0 0.0
2015-Apr-29 06:29N 37°48' W 122°19'0 0.0
2015-Apr-29 05:29N 37°48' W 122°19'0 0.0
2015-Apr-29 04:29N 37°48' W 122°19'0 0.0
2015-Apr-29 03:29N 37°48' W 122°19'0 0.0
2015-Apr-29 02:29N 37°48' W 122°19'0 0.0
2015-Apr-29 01:23N 37°48' W 122°19'0 0.0
2015-Apr-29 00:33N 37°48' W 122°19'2 1.9
2015-Apr-28 23:33N 37°48' W 122°21'4 3.7
2015-Apr-28 22:33N 37°51' W 122°23'4 4.1
2015-Apr-28 21:33N 37°55' W 122°22'1 0.7
2015-Apr-28 20:28N 37°54' W 122°22'0 0.0
2015-Apr-28 19:28N 37°54' W 122°22'0 0.0
2015-Apr-28 18:28N 37°54' W 122°22'0 0.0
2015-Apr-28 17:28N 37°54' W 122°22'0 0.0
2015-Apr-28 16:31N 37°54' W 122°22'1 0.6
2015-Apr-28 15:33N 37°55' W 122°22'1 0.7
2015-Apr-28 14:33N 37°55' W 122°22'1 0.9
2015-Apr-28 13:34N 37°54' W 122°22'0 0.0
2015-Apr-28 12:34N 37°54' W 122°22'1 0.9
2015-Apr-28 11:34N 37°55' W 122°22'2 2.4
2015-Apr-28 10:34N 37°54' W 122°24'8 7.7
2015-Apr-28 09:34N 37°46' W 122°21'1 1.0
2015-Apr-28 08:34N 37°46' W 122°21'0 0.0
2015-Apr-28 07:34N 37°46' W 122°21'0 0.0
2015-Apr-28 06:34N 37°46' W 122°21'0 0.1
2015-Apr-28 05:34N 37°46' W 122°21'0 0.2
2015-Apr-28 04:33N 37°45' W 122°21'0 0.0
2015-Apr-28 03:33N 37°45' W 122°21'0 0.0
2015-Apr-28 02:34N 37°45' W 122°21'0 0.0
2015-Apr-28 01:34N 37°45' W 122°21'0 0.0
2015-Apr-28 00:34N 37°45' W 122°21'5 5.1
2015-Apr-27 23:33N 37°50' W 122°23'4 4.1
2015-Apr-27 22:34N 37°54' W 122°22'0 0.1
2015-Apr-27 21:33N 37°54' W 122°22'0 0.0
2015-Apr-27 20:33N 37°54' W 122°22'0 0.0
2015-Apr-27 19:33N 37°54' W 122°22'0 0.0
2015-Apr-27 18:27N 37°54' W 122°22'0 0.0
2015-Apr-27 17:33N 37°54' W 122°22'0 0.0
2015-Apr-27 16:33N 37°54' W 122°22'0 0.0
2015-Apr-27 15:33N 37°54' W 122°22'0 0.0
2015-Apr-27 14:33N 37°54' W 122°22'0 0.0
2015-Apr-27 13:33N 37°54' W 122°22'0 0.0
2015-Apr-27 12:33N 37°54' W 122°22'0 0.0
2015-Apr-27 11:33N 37°54' W 122°22'0 0.0
2015-Apr-27 10:33N 37°54' W 122°22'0 0.0
2015-Apr-27 09:33N 37°54' W 122°22'0 0.0
2015-Apr-27 08:33N 37°54' W 122°22'0 0.0
2015-Apr-27 07:33N 37°54' W 122°22'0 0.0
2015-Apr-27 06:33N 37°54' W 122°22'0 0.0
2015-Apr-27 05:33N 37°54' W 122°22'0 0.0
2015-Apr-27 04:33N 37°54' W 122°22'0 0.0
2015-Apr-27 03:33N 37°54' W 122°22'0 0.0
2015-Apr-27 02:33N 37°54' W 122°22'0 0.0
2015-Apr-27 01:33N 37°54' W 122°22'0 0.0
2015-Apr-27 00:33N 37°54' W 122°22'0 0.0
2015-Apr-26 23:33N 37°54' W 122°22'  

Dump ship's entire track history